Arland, Wisconsin
Current Conditions -  °F | °C
As of 12:35 AM on Wednesday 26 Nov 2014 (Local Time) from KUBE Reporting Station
Overcast Overcast  
Wind Chill: 21°   Ceiling: 5000
Heat Index: 21°   Visibility: 10mi
Dew Point: 16°   Wind: 3mph
Humidity: 80%   Direction: 130°SE
Pressure: 30.06"   Gusts: NA
Location:  45.3064°N, 92.1345°W
Report Text: KUBE 260635Z AUTO 13003KT 10SM BKN050 OVC060 M06/M09 A3006 RMK AO2
Loading
Personal Weather Stations






























Interactive Weather Map New forecast layout! Learn more

10-Day Weather Forecast

Advertisements
Track Severe Weather on mobile